createdAt,value
2018-05-13T00:00:03.653Z,101190.88
2018-05-13T00:02:29.420Z,101189.20
2018-05-13T00:04:55.209Z,101191.02
2018-05-13T00:07:20.946Z,101192.83
2018-05-13T00:09:46.728Z,101194.40
2018-05-13T00:12:12.499Z,101192.90
2018-05-13T00:14:38.261Z,101185.45
2018-05-13T00:17:04.024Z,101188.27
2018-05-13T00:19:29.814Z,101184.89
2018-05-13T00:21:55.788Z,101179.91
2018-05-13T00:24:21.555Z,101178.77
2018-05-13T00:26:47.437Z,101175.77
2018-05-13T00:29:13.166Z,101181.79
2018-05-13T00:31:38.934Z,101170.96
2018-05-13T00:34:04.714Z,101169.40
2018-05-13T00:36:30.462Z,101166.27
2018-05-13T00:38:56.479Z,101169.78
2018-05-13T00:41:22.272Z,101169.36
2018-05-13T00:43:48.084Z,101170.58
2018-05-13T00:46:13.834Z,101176.22
2018-05-13T00:48:39.636Z,101163.05
2018-05-13T00:51:05.370Z,101166.44
2018-05-13T00:53:31.107Z,101164.55
2018-05-13T00:55:56.971Z,101165.59
2018-05-13T00:58:22.931Z,101161.91
2018-05-13T01:00:48.723Z,101148.09
2018-05-13T01:03:14.491Z,101159.13
2018-05-13T01:05:40.259Z,101152.69
2018-05-13T01:08:06.031Z,101155.82
2018-05-13T01:10:31.842Z,101156.17
2018-05-13T01:12:57.605Z,101158.01
2018-05-13T01:15:23.354Z,101153.38
2018-05-13T01:17:49.156Z,101155.78
2018-05-13T01:20:14.897Z,101149.89
2018-05-13T01:22:40.651Z,101143.45
2018-05-13T01:25:06.440Z,101144.36
2018-05-13T01:27:32.206Z,101143.59
2018-05-13T01:29:57.963Z,101141.02
2018-05-13T01:32:23.724Z,101133.58
2018-05-13T01:34:49.499Z,101132.32
2018-05-13T01:37:15.239Z,101129.57
2018-05-13T01:39:40.994Z,101122.78
2018-05-13T01:42:06.756Z,101119.48
2018-05-13T01:44:32.534Z,101124.17
2018-05-13T01:46:58.356Z,101119.72
2018-05-13T01:49:24.124Z,101114.81
2018-05-13T01:51:50.025Z,101124.87
2018-05-13T01:54:15.795Z,101120.59
2018-05-13T01:56:41.551Z,101118.15
2018-05-13T01:59:07.307Z,101114.52
2018-05-13T02:01:33.076Z,101114.00
2018-05-13T02:03:58.824Z,101114.24
2018-05-13T02:06:24.559Z,101116.13
2018-05-13T02:08:50.289Z,101115.32
2018-05-13T02:11:16.035Z,101111.35
2018-05-13T02:13:48.811Z,101118.77
2018-05-13T02:16:14.587Z,101119.11
2018-05-13T02:18:40.363Z,101117.61
2018-05-13T02:21:06.163Z,101117.72
2018-05-13T02:23:31.911Z,101111.53
2018-05-13T02:25:57.882Z,101110.63
2018-05-13T02:28:23.703Z,101106.70
2018-05-13T02:30:49.597Z,101096.02
2018-05-13T02:33:15.361Z,101101.48
2018-05-13T02:35:41.124Z,101091.73
2018-05-13T02:38:06.867Z,101093.97
2018-05-13T02:40:32.646Z,101097.13
2018-05-13T02:42:58.630Z,101096.96
2018-05-13T02:45:24.444Z,101092.92
2018-05-13T02:47:50.208Z,101095.98
2018-05-13T02:50:15.964Z,101090.28
2018-05-13T02:52:41.737Z,101090.10
2018-05-13T02:55:07.524Z,101086.69
2018-05-13T02:57:33.293Z,101087.42
2018-05-13T02:59:59.057Z,101087.56
2018-05-13T03:02:25.019Z,101083.84
2018-05-13T03:04:50.811Z,101091.91
2018-05-13T03:07:16.579Z,101088.59
2018-05-13T03:09:42.329Z,101083.31
2018-05-13T03:12:08.105Z,101087.94
2018-05-13T03:14:33.918Z,101085.70
2018-05-13T03:16:59.667Z,101088.00
2018-05-13T03:19:25.539Z,101086.02
2018-05-13T03:21:51.291Z,101084.11
2018-05-13T03:24:17.046Z,101082.89
2018-05-13T03:26:42.816Z,101075.20
2018-05-13T03:29:08.588Z,101076.46
2018-05-13T03:31:34.339Z,101074.23
2018-05-13T03:34:00.075Z,101077.23
2018-05-13T03:36:25.864Z,101077.78
2018-05-13T03:38:51.616Z,101066.96
2018-05-13T03:41:17.353Z,101067.63
2018-05-13T03:43:43.111Z,101069.36
2018-05-13T03:46:08.863Z,101072.42
2018-05-13T03:48:34.627Z,101073.19
2018-05-13T03:51:00.389Z,101069.89
2018-05-13T03:53:26.158Z,101068.56
2018-05-13T03:55:51.978Z,101070.38
2018-05-13T03:58:17.730Z,101063.87
2018-05-13T04:00:43.491Z,101066.27
2018-05-13T04:03:09.269Z,101066.27
2018-05-13T04:05:35.016Z,101071.38
2018-05-13T04:11:24.951Z,101070.89
2018-05-13T04:14:03.164Z,101069.58
2018-05-13T04:16:28.920Z,101073.30
2018-05-13T04:18:54.732Z,101071.48
2018-05-13T04:21:20.511Z,101069.78
2018-05-13T04:23:46.276Z,101072.50
2018-05-13T04:26:12.051Z,101072.73
2018-05-13T04:28:37.829Z,101064.42
2018-05-13T04:31:03.660Z,101066.75
2018-05-13T04:33:29.419Z,101066.33
2018-05-13T04:35:55.179Z,101063.75
2018-05-13T04:38:21.024Z,101069.32
2018-05-13T04:40:46.804Z,101064.02
2018-05-13T04:43:12.572Z,101064.54
2018-05-13T04:45:38.363Z,101072.06
2018-05-13T04:48:04.165Z,101071.73
2018-05-13T04:50:29.936Z,101066.28
2018-05-13T04:52:55.779Z,101062.58
2018-05-13T04:55:21.560Z,101063.73
2018-05-13T04:57:47.374Z,101054.97
2018-05-13T05:00:13.155Z,101052.56
2018-05-13T05:02:38.928Z,101058.61
2018-05-13T05:05:04.706Z,101055.97
2018-05-13T05:07:30.498Z,101057.80
2018-05-13T05:09:56.290Z,101059.68
2018-05-13T05:12:22.048Z,101061.52
2018-05-13T05:14:47.835Z,101058.47
2018-05-13T05:17:13.607Z,101053.70
2018-05-13T05:19:39.381Z,101060.20
2018-05-13T05:22:05.138Z,101064.09
2018-05-13T05:24:30.915Z,101065.85
2018-05-13T05:29:28.526Z,101061.13
2018-05-13T05:31:54.275Z,101055.17
2018-05-13T05:34:20.028Z,101060.37
2018-05-13T05:36:45.801Z,101057.87
2018-05-13T05:39:11.559Z,101058.48
2018-05-13T05:41:37.319Z,101059.38
2018-05-13T05:44:03.063Z,101057.55
2018-05-13T05:46:28.823Z,101054.89
2018-05-13T05:48:54.587Z,101056.22
2018-05-13T05:51:20.388Z,101053.45
2018-05-13T05:53:46.135Z,101044.91
2018-05-13T05:56:11.903Z,101044.20
2018-05-13T05:58:37.652Z,101046.11
2018-05-13T06:01:03.403Z,101040.59
2018-05-13T06:03:29.182Z,101042.81
2018-05-13T06:05:54.981Z,101047.02
2018-05-13T06:08:20.730Z,101043.84
2018-05-13T06:10:46.504Z,101049.84
2018-05-13T06:13:12.260Z,101043.78
2018-05-13T06:15:38.012Z,101042.56
2018-05-13T06:18:03.773Z,101040.22
2018-05-13T06:20:29.547Z,101041.59
2018-05-13T06:22:55.332Z,101050.16
2018-05-13T06:25:21.235Z,101035.00
2018-05-13T06:27:46.932Z,101041.75
2018-05-13T06:30:12.706Z,101048.08
2018-05-13T06:32:38.605Z,101045.65
2018-05-13T06:35:04.363Z,101045.16
2018-05-13T06:37:30.130Z,101044.53
2018-05-13T06:39:55.885Z,101041.56
2018-05-13T06:42:21.621Z,101038.59
2018-05-13T06:44:47.378Z,101043.19
2018-05-13T06:47:13.136Z,101040.48
2018-05-13T06:49:38.924Z,101042.40
2018-05-13T06:52:04.662Z,101044.35
2018-05-13T06:54:30.436Z,101038.34
2018-05-13T06:56:56.594Z,101046.63
2018-05-13T06:59:22.369Z,101039.91
2018-05-13T07:01:48.127Z,101041.66
2018-05-13T07:04:13.892Z,101041.72
2018-05-13T07:06:39.631Z,101039.37
2018-05-13T07:09:05.387Z,101039.28
2018-05-13T07:11:31.164Z,101037.76
2018-05-13T07:13:56.944Z,101032.28
2018-05-13T07:16:22.705Z,101034.41
2018-05-13T07:18:48.517Z,101030.17
2018-05-13T07:21:14.291Z,101032.05
2018-05-13T07:23:40.032Z,101028.51
2018-05-13T07:26:05.794Z,101029.06
2018-05-13T07:28:31.531Z,101024.38
2018-05-13T07:30:57.287Z,101021.88
2018-05-13T07:33:23.041Z,101015.66
2018-05-13T07:38:43.588Z,101016.95
2018-05-13T07:41:09.372Z,101015.94
2018-05-13T07:43:35.241Z,101014.49
2018-05-13T07:46:00.999Z,101013.42
2018-05-13T07:48:26.859Z,101015.67
2018-05-13T07:50:52.715Z,101019.87
2018-05-13T07:53:18.401Z,101024.71
2018-05-13T07:55:44.163Z,101019.06
2018-05-13T07:58:09.927Z,101015.64
2018-05-13T08:00:35.723Z,101012.94
2018-05-13T08:03:01.489Z,101011.41
2018-05-13T08:05:27.248Z,101013.45
2018-05-13T08:07:53.003Z,101010.78
2018-05-13T08:10:18.896Z,101012.70
2018-05-13T08:12:44.644Z,101013.56
2018-05-13T08:15:10.418Z,101010.90
2018-05-13T08:17:36.168Z,101012.94
2018-05-13T08:20:01.915Z,101010.84
2018-05-13T08:22:27.723Z,101002.09
2018-05-13T08:24:53.561Z,101004.88
2018-05-13T08:27:19.721Z,101008.31
2018-05-13T08:29:45.495Z,101002.77
2018-05-13T08:32:11.303Z,101005.12
2018-05-13T08:34:37.049Z,100998.80
2018-05-13T08:37:02.855Z,100997.21
2018-05-13T08:39:28.591Z,100993.85
2018-05-13T08:41:54.423Z,100997.41
2018-05-13T08:44:20.128Z,100998.84
2018-05-13T08:46:45.903Z,100997.52
2018-05-13T08:49:11.650Z,100988.36
2018-05-13T08:51:37.439Z,100990.27
2018-05-13T08:54:03.208Z,100987.33
2018-05-13T08:56:28.982Z,100987.05
2018-05-13T08:58:54.736Z,100988.09
2018-05-13T09:01:20.539Z,100977.00
2018-05-13T09:03:46.308Z,100978.34
2018-05-13T09:06:12.132Z,100969.20
2018-05-13T09:08:37.900Z,100970.12
2018-05-13T09:11:03.663Z,100974.44
2018-05-13T09:13:29.440Z,100965.42
2018-05-13T09:15:55.229Z,100968.69
2018-05-13T09:18:21.084Z,100970.95
2018-05-13T09:20:46.847Z,100954.61
2018-05-13T09:23:12.615Z,100954.30
2018-05-13T09:25:38.374Z,100956.44
2018-05-13T09:28:04.160Z,100958.77
2018-05-13T09:30:29.921Z,100958.43
2018-05-13T09:32:55.737Z,100958.11
2018-05-13T09:35:21.476Z,100957.56
2018-05-13T09:37:47.273Z,100956.64
2018-05-13T09:40:13.007Z,100948.73
2018-05-13T09:42:38.759Z,100944.38
2018-05-13T09:45:04.519Z,100946.25
2018-05-13T09:47:30.271Z,100941.46
2018-05-13T09:49:56.081Z,100941.13
2018-05-13T09:52:21.823Z,100940.29
2018-05-13T09:54:47.598Z,100938.48
2018-05-13T09:57:13.404Z,100944.55
2018-05-13T09:59:39.156Z,100944.99
2018-05-13T10:02:04.891Z,100946.82
2018-05-13T10:04:30.646Z,100936.45
2018-05-13T10:07:03.392Z,100931.31
2018-05-13T10:09:29.178Z,100937.51
2018-05-13T10:11:54.911Z,100935.86
2018-05-13T10:14:20.676Z,100929.67
2018-05-13T10:16:46.449Z,100925.02
2018-05-13T10:19:12.204Z,100930.56
2018-05-13T10:21:37.970Z,100927.20
2018-05-13T10:24:03.791Z,100923.76
2018-05-13T10:26:29.536Z,100921.57
2018-05-13T10:28:55.381Z,100920.69
2018-05-13T10:31:21.160Z,100923.12
2018-05-13T10:33:46.925Z,100918.64
2018-05-13T10:36:12.692Z,100920.12
2018-05-13T10:38:38.462Z,100913.77
2018-05-13T10:41:04.223Z,100924.21
2018-05-13T10:43:29.984Z,100914.34
2018-05-13T10:45:55.767Z,100918.83
2018-05-13T10:48:21.552Z,100917.69
2018-05-13T10:50:47.310Z,100925.30
2018-05-13T10:53:13.092Z,100918.25
2018-05-13T10:55:38.842Z,100915.86
2018-05-13T10:58:04.605Z,100909.15
2018-05-13T11:00:30.383Z,100910.63
2018-05-13T11:02:56.240Z,100902.00
2018-05-13T11:05:22.121Z,100906.65
2018-05-13T11:07:47.855Z,100893.12
2018-05-13T11:10:13.609Z,100901.73
2018-05-13T11:12:39.386Z,100905.06
2018-05-13T11:15:05.161Z,100899.69
2018-05-13T11:17:30.919Z,100895.80
2018-05-13T11:19:56.731Z,100896.45
2018-05-13T11:22:22.503Z,100896.62
2018-05-13T11:24:48.286Z,100891.16
2018-05-13T11:27:14.083Z,100883.89
2018-05-13T11:29:39.856Z,100887.11
2018-05-13T11:32:05.652Z,100881.78
2018-05-13T11:34:31.436Z,100878.69
2018-05-13T11:36:57.219Z,100879.62
2018-05-13T11:39:22.975Z,100874.98
2018-05-13T11:41:48.788Z,100874.16
2018-05-13T11:44:14.545Z,100879.66
2018-05-13T11:46:40.356Z,100876.55
2018-05-13T11:49:06.056Z,100868.42
2018-05-13T11:51:31.799Z,100869.43
2018-05-13T11:53:57.550Z,100862.56
2018-05-13T11:56:23.334Z,100861.75
2018-05-13T11:58:49.088Z,100863.98
2018-05-13T12:01:21.947Z,100859.94
2018-05-13T12:03:47.709Z,100853.89
2018-05-13T12:06:13.511Z,100854.09
2018-05-13T12:08:39.277Z,100858.80
2018-05-13T12:11:05.052Z,100859.75
2018-05-13T12:13:30.816Z,100855.72
2018-05-13T12:15:56.580Z,100852.96
2018-05-13T12:18:22.374Z,100843.33
2018-05-13T12:20:48.123Z,100852.70
2018-05-13T12:23:13.879Z,100852.28
2018-05-13T12:25:54.599Z,100846.48
2018-05-13T12:28:20.550Z,100840.53
2018-05-13T12:30:46.307Z,100844.28
2018-05-13T12:33:12.052Z,100835.62
2018-05-13T12:35:37.816Z,100836.53
2018-05-13T12:38:03.663Z,100842.39
2018-05-13T12:40:29.347Z,100835.16
2018-05-13T12:42:55.191Z,100840.47
2018-05-13T12:45:20.935Z,100835.48
2018-05-13T12:47:46.689Z,100837.00
2018-05-13T12:50:12.535Z,100832.20
2018-05-13T12:52:38.234Z,100833.47
2018-05-13T12:55:04.000Z,100834.67
2018-05-13T12:57:29.775Z,100826.62
2018-05-13T12:59:55.522Z,100825.89
2018-05-13T13:02:21.410Z,100825.89
2018-05-13T13:04:47.145Z,100823.58
2018-05-13T13:07:12.899Z,100823.61
2018-05-13T13:09:38.666Z,100817.30
2018-05-13T13:12:04.431Z,100819.89
2018-05-13T13:14:30.206Z,100823.86
2018-05-13T13:16:56.019Z,100813.88
2018-05-13T13:19:21.826Z,100810.93
2018-05-13T13:21:47.568Z,100817.09
2018-05-13T13:24:13.391Z,100807.42
2018-05-13T13:26:39.157Z,100811.25
2018-05-13T13:29:04.913Z,100816.51
2018-05-13T13:31:30.687Z,100812.63
2018-05-13T13:33:56.451Z,100814.62
2018-05-13T13:36:22.238Z,100800.97
2018-05-13T13:38:48.020Z,100807.80
2018-05-13T13:41:13.802Z,100797.20
2018-05-13T13:43:39.601Z,100803.61
2018-05-13T13:46:05.359Z,100795.22
2018-05-13T13:48:31.091Z,100799.95
2018-05-13T13:50:56.863Z,100796.31
2018-05-13T13:53:22.809Z,100795.50
2018-05-13T13:55:48.552Z,100792.14
2018-05-13T13:58:14.306Z,100787.76
2018-05-13T14:00:40.084Z,100790.62
2018-05-13T14:03:05.859Z,100787.27
2018-05-13T14:05:31.620Z,100781.36
2018-05-13T14:07:57.410Z,100784.20
2018-05-13T14:10:23.159Z,100785.33
2018-05-13T14:12:48.982Z,100781.34
2018-05-13T14:15:14.749Z,100788.70
2018-05-13T14:17:40.515Z,100780.12
2018-05-13T14:20:06.410Z,100773.77
2018-05-13T14:22:32.067Z,100779.66
2018-05-13T14:24:57.815Z,100774.23
2018-05-13T14:27:23.607Z,100775.80
2018-05-13T14:29:49.481Z,100771.44
2018-05-13T14:32:15.236Z,100768.41
2018-05-13T14:34:40.984Z,100766.35
2018-05-13T14:37:06.743Z,100768.56
2018-05-13T14:39:32.499Z,100760.58
2018-05-13T14:41:58.238Z,100759.47
2018-05-13T14:44:23.996Z,100756.75
2018-05-13T14:46:49.827Z,100754.91
2018-05-13T14:49:15.567Z,100757.53
2018-05-13T14:51:41.346Z,100750.39
2018-05-13T14:54:07.121Z,100756.53
2018-05-13T14:56:32.887Z,100754.13
2018-05-13T14:58:58.675Z,100759.94
2018-05-13T15:01:24.443Z,100756.74
2018-05-13T15:03:50.288Z,100751.55
2018-05-13T15:06:16.052Z,100754.34
2018-05-13T15:08:41.800Z,100750.69
2018-05-13T15:11:07.539Z,100743.33
2018-05-13T15:13:33.300Z,100742.11
2018-05-13T15:15:59.060Z,100743.16
2018-05-13T15:18:24.820Z,100744.41
2018-05-13T15:20:50.583Z,100733.52
2018-05-13T15:23:16.372Z,100728.70
2018-05-13T15:25:42.123Z,100734.05
2018-05-13T15:28:07.898Z,100728.71
2018-05-13T15:30:33.655Z,100732.91
2018-05-13T15:32:59.434Z,100721.64
2018-05-13T15:35:25.196Z,100725.41
2018-05-13T15:37:50.955Z,100721.91
2018-05-13T15:40:16.727Z,100722.78
2018-05-13T15:42:42.632Z,100721.74
2018-05-13T15:45:08.263Z,100720.28
2018-05-13T15:47:34.011Z,100718.60
2018-05-13T15:49:59.775Z,100721.64
2018-05-13T15:52:25.607Z,100719.69
2018-05-13T15:54:51.422Z,100724.99
2018-05-13T15:57:17.116Z,100715.17
2018-05-13T15:59:42.872Z,100713.97
2018-05-13T16:02:08.638Z,100719.25
2018-05-13T16:04:34.407Z,100719.22
2018-05-13T16:07:00.182Z,100711.97
2018-05-13T16:09:25.955Z,100714.30
2018-05-13T16:11:51.737Z,100720.19
2018-05-13T16:14:17.495Z,100719.41
2018-05-13T16:16:43.254Z,100717.55
2018-05-13T16:19:09.132Z,100715.39
2018-05-13T16:21:34.802Z,100718.47
2018-05-13T16:24:00.535Z,100721.92
2018-05-13T16:26:26.311Z,100723.95
2018-05-13T16:28:52.182Z,100726.23
2018-05-13T16:31:17.987Z,100721.87
2018-05-13T16:33:43.789Z,100722.81
2018-05-13T16:36:09.527Z,100726.58
2018-05-13T16:38:35.328Z,100728.03
2018-05-13T16:41:01.084Z,100728.08
2018-05-13T16:43:26.831Z,100728.14
2018-05-13T16:45:52.589Z,100727.05
2018-05-13T16:48:18.371Z,100733.70
2018-05-13T16:50:44.134Z,100728.28
2018-05-13T16:53:09.901Z,100725.48
2018-05-13T16:55:35.655Z,100731.98
2018-05-13T16:58:01.411Z,100732.39
2018-05-13T17:00:27.182Z,100739.77
2018-05-13T17:02:52.963Z,100742.00
2018-05-13T17:05:18.718Z,100742.47
2018-05-13T17:07:44.471Z,100741.20
2018-05-13T17:10:10.227Z,100743.06
2018-05-13T17:12:35.983Z,100746.69
2018-05-13T17:15:01.760Z,100753.77
2018-05-13T17:17:27.520Z,100754.80
2018-05-13T17:19:53.266Z,100759.14
2018-05-13T17:22:19.035Z,100759.48
2018-05-13T17:24:44.773Z,100757.03
2018-05-13T17:27:10.528Z,100763.16
2018-05-13T17:29:36.332Z,100765.44
2018-05-13T17:32:02.098Z,100770.31
2018-05-13T17:34:27.905Z,100773.16
2018-05-13T17:36:53.815Z,100775.97
2018-05-13T17:39:19.829Z,100779.39
2018-05-13T17:41:45.523Z,100778.16
2018-05-13T17:44:11.316Z,100779.43
2018-05-13T17:46:37.064Z,100786.38
2018-05-13T17:49:02.963Z,100781.53
2018-05-13T17:51:28.838Z,100780.32
2018-05-13T17:53:54.608Z,100780.77
2018-05-13T17:56:23.488Z,100779.88
2018-05-13T17:58:49.309Z,100782.70
2018-05-13T18:01:15.083Z,100787.23
2018-05-13T18:03:40.880Z,100793.08
2018-05-13T18:06:06.664Z,100793.22
2018-05-13T18:08:32.870Z,100797.86
2018-05-13T18:10:58.639Z,100798.89
2018-05-13T18:13:24.416Z,100800.33
2018-05-13T18:15:50.620Z,100799.91
2018-05-13T18:18:16.456Z,100800.87
2018-05-13T18:20:42.204Z,100804.41
2018-05-13T18:23:07.951Z,100804.42
2018-05-13T18:25:33.724Z,100798.91
2018-05-13T18:27:59.499Z,100807.87
2018-05-13T18:30:25.294Z,100804.08
2018-05-13T18:32:51.072Z,100802.98
2018-05-13T18:35:16.824Z,100814.00
2018-05-13T18:37:42.563Z,100814.77
2018-05-13T18:40:08.326Z,100810.98
2018-05-13T18:42:34.128Z,100813.01
2018-05-13T18:44:59.999Z,100811.64
2018-05-13T18:47:25.775Z,100817.18
2018-05-13T18:49:51.531Z,100823.81
2018-05-13T18:52:17.331Z,100831.72
2018-05-13T18:54:43.076Z,100830.08
2018-05-13T18:57:08.848Z,100831.61
2018-05-13T18:59:34.628Z,100831.64
2018-05-13T19:07:45.195Z,100844.22
2018-05-13T19:10:10.977Z,100842.30
2018-05-13T19:18:21.367Z,100847.58
2018-05-13T19:20:47.144Z,100847.29
2018-05-13T19:23:13.032Z,100855.94
2018-05-13T19:25:38.808Z,100859.02
2018-05-13T19:28:04.616Z,100868.68
2018-05-13T19:30:30.420Z,100862.72
2018-05-13T19:32:56.223Z,100869.11
2018-05-13T19:35:22.015Z,100873.52
2018-05-13T19:37:47.767Z,100877.24
2018-05-13T19:40:13.580Z,100874.88
2018-05-13T19:42:39.372Z,100881.44
2018-05-13T19:45:05.191Z,100884.02
2018-05-13T19:47:31.040Z,100884.92
2018-05-13T19:49:56.863Z,100895.92
2018-05-13T19:52:22.650Z,100894.11
2018-05-13T19:54:48.394Z,100892.77
2018-05-13T19:57:14.147Z,100900.03
2018-05-13T19:59:39.920Z,100897.79
2018-05-13T20:02:05.671Z,100898.67
2018-05-13T20:04:31.458Z,100899.20
2018-05-13T20:06:57.219Z,100903.56
2018-05-13T20:09:22.994Z,100905.09
2018-05-13T20:11:48.760Z,100909.11
2018-05-13T20:14:14.540Z,100906.72
2018-05-13T20:16:40.280Z,100909.37
2018-05-13T20:19:06.049Z,100913.33
2018-05-13T20:21:31.851Z,100914.13
2018-05-13T20:23:57.668Z,100908.45
2018-05-13T20:26:23.430Z,100916.72
2018-05-13T20:28:49.244Z,100922.23
2018-05-13T20:31:15.008Z,100925.91
2018-05-13T20:33:40.812Z,100929.67
2018-05-13T20:36:06.648Z,100936.01
2018-05-13T20:38:32.447Z,100938.64
2018-05-13T20:40:58.254Z,100933.70
2018-05-13T20:43:24.123Z,100937.16
2018-05-13T20:45:49.872Z,100934.88
2018-05-13T20:48:15.691Z,100930.14
2018-05-13T20:50:41.467Z,100925.37
2018-05-13T20:53:07.220Z,100936.08
2018-05-13T20:55:32.976Z,100941.16
2018-05-13T20:57:58.752Z,100944.73
2018-05-13T21:00:24.676Z,100948.61
2018-05-13T21:02:50.483Z,100944.66
2018-05-13T21:05:16.320Z,100950.86
2018-05-13T21:07:42.015Z,100953.53
2018-05-13T21:10:07.771Z,100944.71
2018-05-13T21:12:33.528Z,100947.42
2018-05-13T21:14:59.365Z,100953.03
2018-05-13T21:17:25.404Z,100954.81
2018-05-13T21:19:51.179Z,100958.34
2018-05-13T21:22:16.935Z,100959.01
2018-05-13T21:24:42.718Z,100958.67
2018-05-13T21:27:08.463Z,100966.72
2018-05-13T21:29:34.279Z,100965.02
2018-05-13T21:32:00.044Z,100962.92
2018-05-13T21:34:25.779Z,100968.73
2018-05-13T21:36:51.566Z,100965.48
2018-05-13T21:39:17.307Z,100962.25
2018-05-13T21:41:43.051Z,100963.53
2018-05-13T21:44:08.862Z,100965.85
2018-05-13T21:46:34.603Z,100963.64
2018-05-13T21:49:00.384Z,100965.66
2018-05-13T21:51:26.156Z,100969.02
2018-05-13T21:53:51.916Z,100966.64
2018-05-13T21:56:17.707Z,100968.34
2018-05-13T21:58:43.460Z,100976.02
2018-05-13T22:01:09.230Z,100963.78
2018-05-13T22:03:35.035Z,100968.75
2018-05-13T22:06:00.791Z,100959.59
2018-05-13T22:08:26.552Z,100960.08
2018-05-13T22:10:52.524Z,100961.06
2018-05-13T22:13:18.273Z,100961.84
2018-05-13T22:15:44.088Z,100967.02
2018-05-13T22:18:09.864Z,100974.32
2018-05-13T22:20:35.609Z,100972.14
2018-05-13T22:23:01.361Z,100965.14
2018-05-13T22:25:27.133Z,100959.77
2018-05-13T22:27:52.891Z,100964.94
2018-05-13T22:30:18.649Z,100963.97
2018-05-13T22:32:44.431Z,100960.95
2018-05-13T22:35:10.175Z,100965.80
2018-05-13T22:37:35.987Z,100972.08
2018-05-13T22:40:01.772Z,100969.22
2018-05-13T22:42:27.540Z,100968.91
2018-05-13T22:44:53.487Z,100969.61
2018-05-13T22:47:19.786Z,100966.14
2018-05-13T22:49:45.496Z,100964.45
2018-05-13T22:52:11.247Z,100964.50
2018-05-13T22:54:37.012Z,100969.66
2018-05-13T22:57:02.791Z,100973.67
2018-05-13T22:59:28.664Z,100970.69
2018-05-13T23:01:54.434Z,100972.70
2018-05-13T23:04:20.280Z,100974.39
2018-05-13T23:06:46.040Z,100976.17
2018-05-13T23:09:11.826Z,100976.64
2018-05-13T23:11:37.576Z,100978.31
2018-05-13T23:14:03.316Z,100977.83
2018-05-13T23:16:29.086Z,100978.02
2018-05-13T23:18:54.896Z,100984.78
2018-05-13T23:21:20.809Z,100983.39
2018-05-13T23:23:46.568Z,100989.95
2018-05-13T23:26:12.322Z,100981.12
2018-05-13T23:28:38.103Z,100980.22
2018-05-13T23:31:03.842Z,100985.16
2018-05-13T23:33:29.603Z,100985.77
2018-05-13T23:35:56.216Z,100986.79
2018-05-13T23:38:21.992Z,100984.18
2018-05-13T23:40:47.748Z,100989.41
2018-05-13T23:43:13.520Z,100991.19
2018-05-13T23:45:39.275Z,100984.56
2018-05-13T23:48:05.020Z,100988.31
2018-05-13T23:50:30.787Z,100990.58
2018-05-13T23:52:56.542Z,100985.62
2018-05-13T23:55:22.324Z,100986.88
2018-05-13T23:57:48.091Z,100989.55
